Time;durP1;ratioP1;P1;durP2;ratioP2;P2;SDS_P1;SDS_P2;PMS_P1;PMS_P2;Temp;Humidity;BMP_temperature;BMP_pressure;BME280_temperature;BME280_humidity;BME280_pressure;Samples;Min_cycle;Max_cycle;Signal;HPM_P1;HPM_P2
2023/01/19 00:01:51;;;;;;;76.18;37.20;;;-0.70;99.90;;;;;;5111679;27;20082;-88
2023/01/19 00:04:19;;;;;;;56.13;29.13;;;-0.70;99.90;;;;;;5113557;28;20031;-88
2023/01/19 00:06:45;;;;;;;50.28;26.40;;;-0.70;99.90;;;;;;5114218;28;20695;-88
2023/01/19 00:09:11;;;;;;;47.40;27.13;;;-0.70;99.90;;;;;;5113568;28;20555;-86
2023/01/19 00:11:37;;;;;;;48.45;25.20;;;-0.60;99.90;;;;;;5113924;28;20031;-86
2023/01/19 00:14:02;;;;;;;53.58;25.85;;;-0.60;99.90;;;;;;5095441;28;20069;-86
2023/01/19 00:16:28;;;;;;;51.55;25.67;;;-0.60;99.90;;;;;;5113430;28;20054;-88
2023/01/19 00:18:54;;;;;;;43.10;24.20;;;-0.60;99.90;;;;;;5095421;28;20058;-87
2023/01/19 00:21:21;;;;;;;45.05;26.33;;;-0.60;99.90;;;;;;5095431;28;20030;-88
2023/01/19 00:23:47;;;;;;;50.55;28.10;;;-0.50;99.90;;;;;;5113456;28;20039;-87
2023/01/19 00:26:19;;;;;;;49.42;25.75;;;-0.50;99.90;;;;;;5113174;28;20020;-87
2023/01/19 00:28:45;;;;;;;43.78;26.75;;;-0.50;99.90;;;;;;5112678;28;20019;-87
2023/01/19 00:31:11;;;;;;;44.33;25.13;;;-0.50;99.90;;;;;;5113962;28;20022;-87
2023/01/19 00:33:37;;;;;;;82.75;39.13;;;-0.50;99.90;;;;;;5095363;28;20380;-86
2023/01/19 00:36:03;;;;;;;71.88;36.05;;;-0.50;99.90;;;;;;5113190;28;20028;-87
2023/01/19 00:38:32;;;;;;;84.30;46.83;;;-0.50;99.90;;;;;;5113629;28;20024;-87
2023/01/19 00:41:02;;;;;;;86.60;44.50;;;-0.50;99.90;;;;;;5113631;28;20135;-86
2023/01/19 00:43:27;;;;;;;74.43;37.17;;;-0.50;99.90;;;;;;5095342;28;20490;-86
2023/01/19 00:45:55;;;;;;;66.63;35.70;;;-0.50;99.90;;;;;;5113475;28;20089;-87
2023/01/19 00:48:21;;;;;;;64.00;27.80;;;-0.50;99.90;;;;;;5113462;28;20026;-87
2023/01/19 00:50:49;;;;;;;64.10;30.73;;;-0.50;99.90;;;;;;5113610;28;20372;-87
2023/01/19 00:53:15;;;;;;;50.38;28.05;;;-0.50;99.90;;;;;;5113676;28;20054;-87
2023/01/19 00:55:40;;;;;;;58.65;29.50;;;-0.40;99.90;;;;;;5094603;28;20043;-88
2023/01/19 00:58:06;;;;;;;55.85;27.60;;;-0.40;99.90;;;;;;5095199;28;20027;-87
2023/01/19 01:00:32;;;;;;;53.92;25.88;;;-0.40;99.90;;;;;;5112776;28;20034;-86
2023/01/19 01:02:58;;;;;;;42.58;23.17;;;-0.40;99.90;;;;;;5112299;28;20023;-86
2023/01/19 01:05:24;;;;;;;49.45;26.25;;;-0.40;99.90;;;;;;5113588;28;20023;-88
2023/01/19 01:07:54;;;;;;;48.47;25.85;;;-0.40;99.90;;;;;;5094497;28;20049;-88
2023/01/19 01:10:26;;;;;;;42.83;23.98;;;-0.40;99.90;;;;;;5113433;28;20016;-87
2023/01/19 01:12:55;;;;;;;45.50;24.98;;;-0.40;99.90;;;;;;5112977;28;20026;-86
2023/01/19 01:15:21;;;;;;;41.45;24.08;;;-0.40;99.90;;;;;;5113017;28;20105;-86
2023/01/19 01:17:47;;;;;;;41.70;23.85;;;-0.40;99.90;;;;;;5112671;28;20055;-87
2023/01/19 01:20:17;;;;;;;46.50;23.65;;;-0.30;99.90;;;;;;5113033;28;20396;-86
2023/01/19 01:22:50;;;;;;;46.42;24.85;;;-0.30;99.90;;;;;;5098718;28;20015;-87
2023/01/19 01:25:19;;;;;;;44.15;25.05;;;-0.40;99.90;;;;;;5098858;28;20028;-87
2023/01/19 01:27:45;;;;;;;46.97;24.70;;;-0.40;99.90;;;;;;5098208;28;20518;-86
2023/01/19 01:30:12;;;;;;;41.97;23.15;;;-0.40;99.90;;;;;;5098628;28;20024;-86
2023/01/19 01:32:48;;;;;;;44.53;23.52;;;-0.40;99.90;;;;;;5117198;28;20047;-86
2023/01/19 01:35:17;;;;;;;44.25;24.83;;;-0.40;99.90;;;;;;5116592;28;20032;-86
2023/01/19 01:37:45;;;;;;;44.15;23.88;;;-0.40;99.90;;;;;;5098545;28;20384;-86
2023/01/19 01:40:13;;;;;;;44.05;23.77;;;-0.30;99.90;;;;;;5116653;28;20019;-87
2023/01/19 01:42:41;;;;;;;47.42;24.20;;;-0.40;99.90;;;;;;5116735;28;20028;-86
2023/01/19 01:45:39;;;;;;;51.20;24.13;;;-0.30;99.90;;;;;;5097997;28;20024;-87
2023/01/19 01:48:14;;;;;;;47.30;24.73;;;-0.40;99.90;;;;;;5117345;28;20034;-87
2023/01/19 01:53:41;;;;;;;43.75;24.38;;;-0.30;99.90;;;;;;5116022;28;20030;-88
2023/01/19 01:56:11;;;;;;;44.92;25.63;;;-0.30;99.90;;;;;;5135034;27;20469;-88
2023/01/19 01:58:40;;;;;;;54.63;27.83;;;-0.30;99.90;;;;;;5137304;27;20019;-88
2023/01/19 02:03:52;;;;;;;45.88;24.85;;;-0.30;99.90;;;;;;5136754;27;20080;-87
2023/01/19 02:06:21;;;;;;;41.00;23.33;;;-0.30;99.90;;;;;;5118096;27;20033;-88
2023/01/19 02:14:27;;;;;;;47.15;24.15;;;-0.30;99.90;;;;;;5136907;27;20046;-87
2023/01/19 02:16:55;;;;;;;46.97;24.98;;;-0.30;99.90;;;;;;5136201;27;20023;-86
2023/01/19 02:19:33;;;;;;;53.10;28.27;;;-0.30;99.90;;;;;;5118115;27;20094;-86
2023/01/19 02:22:08;;;;;;;56.45;29.80;;;-0.30;99.90;;;;;;5117621;27;20510;-87
2023/01/19 02:24:34;;;;;;;76.03;40.40;;;-0.40;99.90;;;;;;5136837;27;20468;-87
2023/01/19 02:27:01;;;;;;;69.10;37.63;;;-0.30;99.90;;;;;;5118032;27;20015;-87
2023/01/19 02:29:27;;;;;;;57.95;32.50;;;-0.30;99.90;;;;;;5118188;27;20063;-88
2023/01/19 02:31:55;;;;;;;50.83;29.30;;;-0.30;99.90;;;;;;5135954;27;20438;-87
2023/01/19 02:34:21;;;;;;;59.35;31.90;;;-0.30;99.90;;;;;;5135284;27;20082;-86
2023/01/19 02:37:00;;;;;;;53.33;30.63;;;-0.30;99.90;;;;;;5136123;27;20015;-87
2023/01/19 02:39:40;;;;;;;51.90;30.00;;;-0.30;99.90;;;;;;5117339;27;20019;-87
2023/01/19 02:42:15;;;;;;;61.15;30.83;;;-0.30;99.90;;;;;;5135805;27;20023;-86
2023/01/19 02:44:43;;;;;;;49.78;28.60;;;-0.30;99.90;;;;;;5118020;27;20034;-87
2023/01/19 02:47:10;;;;;;;48.30;27.33;;;-0.30;99.90;;;;;;5136004;27;20026;-87
2023/01/19 02:49:43;;;;;;;47.97;24.92;;;-0.30;99.90;;;;;;5117197;27;20026;-86
2023/01/19 02:52:17;;;;;;;44.47;23.30;;;-0.30;99.90;;;;;;5136021;27;20109;-87
2023/01/19 02:55:00;;;;;;;46.30;25.30;;;-0.30;99.90;;;;;;5136147;27;20047;-87
2023/01/19 02:57:50;;;;;;;49.75;26.05;;;-0.40;99.90;;;;;;5135996;27;20031;-87
2023/01/19 03:00:22;;;;;;;52.38;28.73;;;-0.40;99.90;;;;;;5135951;27;20491;-88
2023/01/19 03:03:25;;;;;;;54.67;28.90;;;-0.40;99.90;;;;;;5117376;27;20027;-86
2023/01/19 03:06:03;;;;;;;51.50;28.15;;;-0.40;99.90;;;;;;5116861;27;20031;-87
2023/01/19 03:08:40;;;;;;;60.78;31.23;;;-0.40;99.90;;;;;;5135365;27;20027;-88
2023/01/19 03:11:13;;;;;;;67.95;29.35;;;-0.40;99.90;;;;;;5136243;27;20023;-87
2023/01/19 03:13:45;;;;;;;54.20;29.20;;;-0.40;99.90;;;;;;5117531;27;20420;-86
2023/01/19 03:16:22;;;;;;;47.67;26.33;;;-0.40;99.90;;;;;;5135890;27;20070;-87
2023/01/19 03:18:54;;;;;;;44.50;23.08;;;-0.40;99.90;;;;;;5116848;27;20015;-86
2023/01/19 03:21:25;;;;;;;43.22;23.20;;;-0.40;99.90;;;;;;5116905;27;20083;-87
2023/01/19 03:23:53;;;;;;;40.97;22.17;;;-0.40;99.90;;;;;;5117096;27;20035;-87
2023/01/19 03:26:26;;;;;;;43.05;22.83;;;-0.40;99.90;;;;;;5117001;27;20428;-87
2023/01/19 03:28:54;;;;;;;37.30;20.77;;;-0.40;99.90;;;;;;5117296;27;20023;-87
2023/01/19 03:31:23;;;;;;;38.17;20.88;;;-0.40;99.90;;;;;;5135014;27;20023;-86
2023/01/19 03:33:57;;;;;;;37.72;21.27;;;-0.40;99.90;;;;;;5135212;27;20011;-87
2023/01/19 03:36:31;;;;;;;35.83;20.73;;;-0.50;99.90;;;;;;5135609;27;20035;-86
2023/01/19 03:38:59;;;;;;;37.50;21.25;;;-0.40;99.90;;;;;;5116753;27;20051;-87
2023/01/19 03:41:29;;;;;;;38.65;19.38;;;-0.40;99.90;;;;;;5135144;27;20026;-87
2023/01/19 03:43:56;;;;;;;36.97;20.25;;;-0.50;99.90;;;;;;5134931;27;20152;-87
2023/01/19 03:46:23;;;;;;;39.72;20.42;;;-0.40;99.90;;;;;;5116538;27;20027;-86
2023/01/19 03:48:49;;;;;;;39.30;21.70;;;-0.40;99.90;;;;;;5135213;27;20076;-88
2023/01/19 03:51:16;;;;;;;29.85;18.38;;;-0.50;99.90;;;;;;5134845;27;20023;-87
2023/01/19 03:53:42;;;;;;;32.60;17.77;;;-0.50;99.90;;;;;;5134409;27;20033;-87
2023/01/19 03:56:17;;;;;;;39.72;19.67;;;-0.50;99.90;;;;;;5116011;27;20027;-87
2023/01/19 03:58:43;;;;;;;32.22;19.85;;;-0.40;99.90;;;;;;5116338;27;20038;-87
2023/01/19 04:01:09;;;;;;;51.67;22.70;;;-0.40;99.90;;;;;;5135056;27;20464;-88
2023/01/19 04:03:34;;;;;;;423.30;129.00;;;-0.50;99.90;;;;;;5116520;27;20030;-86
2023/01/19 04:06:01;;;;;;;359.55;117.35;;;-0.50;99.90;;;;;;5134213;27;20430;-86
2023/01/19 04:08:31;;;;;;;284.95;94.22;;;-0.50;99.90;;;;;;5134655;27;20047;-88
2023/01/19 04:11:00;;;;;;;116.75;48.08;;;-0.50;99.90;;;;;;5134522;27;20050;-87
2023/01/19 04:13:27;;;;;;;110.07;44.38;;;-0.50;99.90;;;;;;5134451;27;20084;-86
2023/01/19 04:15:53;;;;;;;221.93;76.88;;;-0.50;99.90;;;;;;5116069;27;20027;-86
2023/01/19 04:18:19;;;;;;;76.75;34.20;;;-0.50;99.90;;;;;;5116140;27;20084;-86
2023/01/19 04:20:45;;;;;;;86.18;34.13;;;-0.50;99.90;;;;;;5115669;27;20019;-86
2023/01/19 04:23:11;;;;;;;110.45;36.33;;;-0.60;99.90;;;;;;5134026;27;20018;-87
2023/01/19 04:25:37;;;;;;;108.05;41.15;;;-0.50;99.90;;;;;;5116099;27;20430;-87
2023/01/19 04:28:03;;;;;;;106.72;43.85;;;-0.50;99.90;;;;;;5134526;27;20081;-88
2023/01/19 04:30:29;;;;;;;85.85;40.10;;;-0.50;99.90;;;;;;5134526;27;20027;-88
2023/01/19 04:32:58;;;;;;;79.75;34.42;;;-0.50;99.90;;;;;;5115614;27;20380;-88
2023/01/19 04:35:24;;;;;;;74.15;32.13;;;-0.50;99.90;;;;;;5134180;27;20132;-86
2023/01/19 04:37:50;;;;;;;41.33;20.45;;;-0.50;99.90;;;;;;5115588;27;20019;-86
2023/01/19 04:40:16;;;;;;;34.45;17.35;;;-0.60;99.90;;;;;;5115606;27;20015;-87
2023/01/19 04:42:43;;;;;;;33.55;19.23;;;-0.50;99.90;;;;;;5133989;27;20054;-86
2023/01/19 04:45:10;;;;;;;39.95;19.90;;;-0.50;99.90;;;;;;5133909;27;20480;-85
2023/01/19 04:47:36;;;;;;;44.55;22.73;;;-0.50;99.90;;;;;;5115457;27;20424;-87
2023/01/19 04:50:04;;;;;;;52.40;27.17;;;-0.50;99.90;;;;;;5133833;27;20152;-87
2023/01/19 04:52:33;;;;;;;81.70;33.55;;;-0.50;99.90;;;;;;5115571;27;20015;-87
2023/01/19 04:55:00;;;;;;;95.38;33.72;;;-0.50;99.90;;;;;;5114329;27;20480;-87
2023/01/19 04:57:29;;;;;;;201.45;67.55;;;-0.50;99.90;;;;;;5114859;28;20104;-87
2023/01/19 04:59:55;;;;;;;284.63;94.43;;;-0.50;99.90;;;;;;5133730;27;20081;-88
2023/01/19 05:02:23;;;;;;;256.67;87.75;;;-0.50;99.90;;;;;;5114917;28;20472;-88
2023/01/19 05:04:49;;;;;;;256.77;92.13;;;-0.50;99.90;;;;;;5115369;28;20024;-87
2023/01/19 05:07:15;;;;;;;241.60;87.93;;;-0.50;99.90;;;;;;5133633;28;20102;-85
2023/01/19 05:09:44;;;;;;;258.77;94.18;;;-0.50;99.90;;;;;;5115233;28;20023;-87
2023/01/19 05:12:10;;;;;;;261.35;90.10;;;-0.50;99.90;;;;;;5133927;28;20027;-87
2023/01/19 05:14:36;;;;;;;287.25;96.38;;;-0.50;99.90;;;;;;5133758;28;20033;-88
2023/01/19 05:17:02;;;;;;;240.48;82.78;;;-0.50;99.90;;;;;;5133547;28;20027;-86
2023/01/19 05:19:28;;;;;;;205.68;71.38;;;-0.50;99.90;;;;;;5133717;28;20039;-87
2023/01/19 05:21:54;;;;;;;250.35;87.35;;;-0.60;99.90;;;;;;5133981;28;20028;-86
2023/01/19 05:24:21;;;;;;;277.73;92.53;;;-0.70;99.90;;;;;;5115566;28;20361;-87
2023/01/19 05:26:46;;;;;;;315.15;110.85;;;-0.60;99.90;;;;;;5132919;28;20019;-86
2023/01/19 05:29:19;;;;;;;279.65;94.35;;;-0.60;99.90;;;;;;5112765;28;20023;-88
2023/01/19 05:31:45;;;;;;;215.75;80.82;;;-0.60;99.90;;;;;;5112898;28;20088;-87
2023/01/19 05:34:11;;;;;;;210.82;75.47;;;-0.60;99.90;;;;;;5094089;28;20019;-87
2023/01/19 05:36:36;;;;;;;216.15;80.55;;;-0.50;99.90;;;;;;5094506;28;20073;-87
2023/01/19 05:39:02;;;;;;;236.13;88.78;;;-0.50;99.90;;;;;;5112735;28;20511;-87
2023/01/19 05:41:29;;;;;;;215.35;80.50;;;-0.50;99.90;;;;;;5094392;28;20142;-87
2023/01/19 05:43:57;;;;;;;178.43;65.10;;;-0.50;99.90;;;;;;5112374;28;20131;-86
2023/01/19 05:46:23;;;;;;;103.78;44.22;;;-0.50;99.90;;;;;;5113205;28;20069;-88
2023/01/19 05:48:51;;;;;;;75.47;34.63;;;-0.50;99.90;;;;;;5112296;28;20020;-87
2023/01/19 05:51:17;;;;;;;47.03;23.45;;;-0.50;99.90;;;;;;5094270;28;20027;-86
2023/01/19 05:53:43;;;;;;;79.85;32.60;;;-0.50;99.90;;;;;;5112217;28;20088;-86
2023/01/19 05:56:09;;;;;;;71.78;31.52;;;-0.50;99.90;;;;;;5094427;28;20035;-86
2023/01/19 05:58:38;;;;;;;60.72;29.80;;;-0.40;99.90;;;;;;5094747;28;20069;-87
2023/01/19 06:01:11;;;;;;;50.95;25.52;;;-0.50;99.90;;;;;;5094401;28;20020;-87
2023/01/19 06:03:39;;;;;;;45.67;22.48;;;-0.40;99.90;;;;;;5112295;28;20481;-87
2023/01/19 06:06:05;;;;;;;45.20;23.27;;;-0.40;99.90;;;;;;5112185;28;20388;-87
2023/01/19 06:08:31;;;;;;;38.78;19.80;;;-0.40;99.90;;;;;;5115549;28;20027;-87
2023/01/19 06:10:57;;;;;;;37.13;20.85;;;-0.40;99.90;;;;;;5098076;28;20012;-87
2023/01/19 06:13:23;;;;;;;39.15;20.60;;;-0.40;99.90;;;;;;5098418;28;20026;-87
2023/01/19 06:15:56;;;;;;;44.90;23.08;;;-0.40;99.90;;;;;;5112602;28;20485;-87
2023/01/19 06:18:22;;;;;;;48.70;21.48;;;-0.40;99.90;;;;;;5098819;28;20051;-86
2023/01/19 06:20:48;;;;;;;51.72;26.77;;;-0.40;99.90;;;;;;5077836;28;20054;-87
2023/01/19 06:23:14;;;;;;;46.20;23.45;;;-0.40;99.90;;;;;;5077577;28;20024;-86
2023/01/19 06:25:40;;;;;;;44.60;22.52;;;-0.40;99.90;;;;;;5095018;28;20495;-88
2023/01/19 06:28:05;;;;;;;34.22;20.27;;;-0.30;99.90;;;;;;5095367;28;20020;-85
2023/01/19 06:31:06;;;;;;;37.58;20.25;;;-0.40;99.90;;;;;;5095031;28;20070;-88
2023/01/19 06:34:29;;;;;;;;;;;;;;;;;;;;;
2023/01/19 06:37:01;;;;;;;36.28;18.25;;;-0.30;99.90;;;;;;5080129;28;20396;-88
2023/01/19 06:39:26;;;;;;;41.42;19.63;;;-0.30;99.90;;;;;;5095151;28;20056;-87
2023/01/19 06:41:54;;;;;;;37.97;18.83;;;-0.20;99.90;;;;;;5097997;28;20071;-87
2023/01/19 06:44:22;;;;;;;34.28;19.65;;;-0.30;99.90;;;;;;5076280;28;20020;-88
2023/01/19 06:46:48;;;;;;;42.60;22.63;;;-0.20;99.90;;;;;;5094606;28;20416;-87
2023/01/19 06:49:17;;;;;;;37.78;19.63;;;-0.20;99.90;;;;;;5079401;28;20024;-86
2023/01/19 06:51:42;;;;;;;41.47;20.05;;;-0.10;99.90;;;;;;5099690;28;20095;-86
2023/01/19 06:54:08;;;;;;;37.72;20.77;;;-0.10;99.90;;;;;;5085654;28;20465;-87
2023/01/19 06:56:34;;;;;;;39.60;20.90;;;-0.10;99.90;;;;;;5094020;28;20032;-87
2023/01/19 06:59:05;;;;;;;37.55;20.80;;;0.00;99.90;;;;;;5078981;28;20024;-87
2023/01/19 07:01:31;;;;;;;33.25;18.67;;;0.00;99.90;;;;;;5094869;28;20031;-88
2023/01/19 07:04:00;;;;;;;34.97;21.08;;;0.00;99.90;;;;;;5076866;28;20473;-86
2023/01/19 07:06:26;;;;;;;39.78;19.40;;;0.00;99.90;;;;;;5094895;28;20051;-87
2023/01/19 07:08:53;;;;;;;51.22;25.60;;;0.10;99.90;;;;;;5078939;28;20051;-86
2023/01/19 07:11:18;;;;;;;76.50;39.55;;;0.00;99.90;;;;;;5115381;28;20073;-87
2023/01/19 07:13:50;;;;;;;227.50;116.88;;;0.10;99.90;;;;;;5114358;28;20051;-87
2023/01/19 07:16:17;;;;;;;205.73;105.53;;;0.10;99.90;;;;;;5087987;28;20119;-87
2023/01/19 07:18:44;;;;;;;190.05;98.90;;;0.10;99.90;;;;;;5091383;28;20047;-86
2023/01/19 07:21:09;;;;;;;152.38;71.68;;;0.10;99.90;;;;;;5074303;28;20049;-85
2023/01/19 07:23:36;;;;;;;168.00;76.75;;;0.20;99.90;;;;;;5092369;28;20155;-87
2023/01/19 07:26:02;;;;;;;134.20;67.97;;;0.20;99.90;;;;;;5074130;28;20024;-88
2023/01/19 07:28:29;;;;;;;57.83;30.77;;;0.20;99.90;;;;;;5073895;28;20465;-86
2023/01/19 07:30:56;;;;;;;45.65;24.17;;;0.20;99.90;;;;;;5094405;28;20016;-85
2023/01/19 07:33:24;;;;;;;51.22;25.23;;;0.20;99.90;;;;;;5094820;28;20028;-88
2023/01/19 07:35:53;;;;;;;43.22;24.95;;;0.20;99.90;;;;;;5075782;28;20032;-85
2023/01/19 07:38:19;;;;;;;43.15;22.73;;;0.20;99.90;;;;;;5055520;28;20056;-85
2023/01/19 07:40:45;;;;;;;44.75;25.30;;;0.20;99.90;;;;;;5071531;28;20398;-85
2023/01/19 07:43:15;;;;;;;50.85;25.77;;;0.10;99.90;;;;;;5071383;28;20051;-85
2023/01/19 07:45:44;;;;;;;45.03;24.55;;;0.10;99.90;;;;;;5071526;28;20074;-87
2023/01/19 07:48:12;;;;;;;50.53;26.67;;;0.10;99.90;;;;;;5053811;28;20477;-87
2023/01/19 07:50:38;;;;;;;54.97;27.92;;;0.10;99.90;;;;;;5071435;28;20031;-85
2023/01/19 07:53:10;;;;;;;65.22;35.42;;;0.20;99.90;;;;;;5054049;28;20124;-86
2023/01/19 07:55:36;;;;;;;92.57;46.60;;;0.20;99.90;;;;;;5093064;28;20040;-85
2023/01/19 07:58:06;;;;;;;70.30;39.97;;;0.20;99.90;;;;;;5094053;28;20077;-85
2023/01/19 08:00:33;;;;;;;86.68;47.92;;;0.20;99.90;;;;;;5075700;28;20024;-85
2023/01/19 08:02:59;;;;;;;123.35;57.63;;;0.30;99.90;;;;;;5093882;28;20031;-85
2023/01/19 08:05:28;;;;;;;130.07;60.75;;;0.30;99.90;;;;;;5076080;28;20020;-86
2023/01/19 08:07:56;;;;;;;117.22;55.65;;;0.30;99.90;;;;;;5075660;28;20031;-86
2023/01/19 08:10:26;;;;;;;109.90;53.65;;;0.40;99.90;;;;;;5075566;28;20115;-86
2023/01/19 08:12:53;;;;;;;93.18;44.30;;;0.40;99.90;;;;;;5075857;28;20026;-86
2023/01/19 08:15:21;;;;;;;124.00;59.10;;;0.40;99.90;;;;;;5075086;28;20040;-85
2023/01/19 08:17:54;;;;;;;157.30;78.50;;;0.50;99.90;;;;;;5092874;28;20061;-87
2023/01/19 08:20:25;;;;;;;151.30;77.93;;;0.40;99.90;;;;;;5093213;28;20070;-85
2023/01/19 08:22:58;;;;;;;154.07;78.93;;;0.50;99.90;;;;;;5077063;28;20032;-88
2023/01/19 08:25:34;;;;;;;138.68;69.65;;;0.40;99.90;;;;;;5093419;28;20020;-87
2023/01/19 08:28:00;;;;;;;125.53;64.38;;;0.50;99.90;;;;;;5093432;28;20094;-87
2023/01/19 08:30:34;;;;;;;134.90;69.65;;;0.50;99.90;;;;;;5093232;28;20432;-85
2023/01/19 08:33:02;;;;;;;105.22;54.35;;;0.50;99.90;;;;;;5075958;28;20024;-85
2023/01/19 08:35:33;;;;;;;81.93;45.22;;;0.50;99.90;;;;;;5075216;28;20059;-85
2023/01/19 08:38:02;;;;;;;68.22;34.55;;;0.50;99.90;;;;;;5093217;28;20024;-86
2023/01/19 08:40:29;;;;;;;53.38;27.88;;;0.50;99.90;;;;;;5093093;28;20046;-86
2023/01/19 08:43:08;;;;;;;50.85;27.98;;;0.50;99.90;;;;;;5093259;28;20381;-85
2023/01/19 08:45:38;;;;;;;55.25;28.23;;;0.50;99.90;;;;;;5075545;28;20020;-86
2023/01/19 08:48:05;;;;;;;66.18;29.35;;;0.50;99.90;;;;;;5074611;28;20036;-85
2023/01/19 08:50:31;;;;;;;46.03;23.88;;;0.60;99.90;;;;;;5113648;28;20023;-86
2023/01/19 08:52:58;;;;;;;46.80;25.52;;;0.60;99.90;;;;;;5112638;28;20051;-86
2023/01/19 08:55:25;;;;;;;48.55;27.52;;;0.60;99.90;;;;;;5094736;28;20065;-87
2023/01/19 08:57:58;;;;;;;55.70;30.27;;;0.60;99.90;;;;;;5095089;28;20059;-87
2023/01/19 09:00:25;;;;;;;55.90;31.42;;;0.60;99.90;;;;;;5092713;28;20054;-87
2023/01/19 09:02:51;;;;;;;44.28;25.65;;;0.60;99.90;;;;;;5092829;28;20032;-86
2023/01/19 09:05:17;;;;;;;48.70;24.63;;;0.50;99.90;;;;;;5093101;28;20046;-85
2023/01/19 09:07:45;;;;;;;48.63;28.10;;;0.50;99.90;;;;;;5092256;28;20027;-84
2023/01/19 09:10:11;;;;;;;45.55;25.80;;;0.50;99.90;;;;;;5091295;28;20007;-87
2023/01/19 09:12:37;;;;;;;59.90;32.10;;;0.50;99.90;;;;;;5086784;28;20025;-86
2023/01/19 09:15:03;;;;;;;62.05;32.35;;;0.50;99.90;;;;;;5071414;28;20028;-85
2023/01/19 09:17:29;;;;;;;55.88;29.60;;;0.50;99.90;;;;;;5074353;28;20031;-86
2023/01/19 09:19:55;;;;;;;63.63;32.10;;;0.50;99.90;;;;;;5074321;28;20017;-87
2023/01/19 09:22:21;;;;;;;52.17;29.30;;;0.50;99.90;;;;;;5092504;28;20461;-87
2023/01/19 09:24:46;;;;;;;52.38;29.42;;;0.50;99.90;;;;;;5074161;28;20021;-87
2023/01/19 09:27:12;;;;;;;57.17;32.13;;;0.60;99.90;;;;;;5074228;28;20024;-85
2023/01/19 09:29:38;;;;;;;47.63;26.67;;;0.70;99.90;;;;;;5092976;28;20150;-86
2023/01/19 09:32:04;;;;;;;49.05;26.00;;;0.70;99.90;;;;;;5092938;28;20485;-86
2023/01/19 09:34:30;;;;;;;42.28;24.65;;;0.70;99.90;;;;;;5092526;28;20028;-88
2023/01/19 09:36:56;;;;;;;55.67;26.83;;;0.80;99.90;;;;;;5092971;28;20099;-88
2023/01/19 09:39:22;;;;;;;42.83;23.42;;;0.90;99.90;;;;;;5092648;28;20449;-85
2023/01/19 09:42:12;;;;;;;51.25;26.60;;;0.90;99.90;;;;;;5093119;28;20020;-86
2023/01/19 09:44:42;;;;;;;45.72;24.77;;;0.90;99.90;;;;;;5097071;28;20031;-85
2023/01/19 09:47:18;;;;;;;48.15;25.67;;;1.00;99.90;;;;;;5096134;28;20473;-87
2023/01/19 09:49:57;;;;;;;49.15;25.77;;;0.90;99.90;;;;;;5096509;28;20026;-87
2023/01/19 09:52:23;;;;;;;53.03;28.80;;;0.90;99.90;;;;;;5078689;28;20422;-85
2023/01/19 09:54:53;;;;;;;53.95;28.98;;;1.00;99.90;;;;;;5077380;28;20074;-85
2023/01/19 09:57:21;;;;;;;56.40;31.33;;;0.90;99.90;;;;;;5077780;28;20107;-86
2023/01/19 09:59:49;;;;;;;52.05;29.98;;;1.00;99.90;;;;;;5096337;28;20028;-86
2023/01/19 10:03:03;;;;;;;63.97;33.60;;;1.00;99.90;;;;;;5077296;28;20016;-87
2023/01/19 10:05:39;;;;;;;57.05;31.10;;;1.10;99.90;;;;;;5069516;28;20465;-86
2023/01/19 10:08:38;;;;;;;51.28;27.58;;;1.10;99.90;;;;;;5077699;28;20069;-88
2023/01/19 10:11:29;;;;;;;57.20;28.73;;;1.10;99.90;;;;;;5077942;28;20028;-86
2023/01/19 10:13:59;;;;;;;67.03;34.50;;;1.10;99.90;;;;;;5095961;28;20028;-86
2023/01/19 10:16:57;;;;;;;54.13;30.83;;;1.20;99.90;;;;;;5096126;28;20119;-86
2023/01/19 10:19:28;;;;;;;57.47;29.90;;;1.20;99.90;;;;;;5077881;28;20607;-87
2023/01/19 10:22:03;;;;;;;49.58;28.50;;;1.30;99.90;;;;;;5095856;28;20028;-85
2023/01/19 10:24:40;;;;;;;67.93;33.63;;;1.30;99.90;;;;;;5077114;28;20468;-86
2023/01/19 10:27:17;;;;;;;79.10;41.22;;;1.30;99.90;;;;;;5077107;28;20055;-87
2023/01/19 10:29:45;;;;;;;57.65;32.30;;;1.20;99.90;;;;;;5095661;28;20543;-84
2023/01/19 10:32:18;;;;;;;56.78;28.80;;;1.20;99.90;;;;;;5095708;28;20021;-88
2023/01/19 10:34:45;;;;;;;54.70;28.42;;;1.00;99.90;;;;;;5076904;28;20028;-86
2023/01/19 10:37:17;;;;;;;54.03;27.58;;;0.90;99.90;;;;;;5077315;28;20491;-86
2023/01/19 10:39:51;;;;;;;55.95;28.70;;;0.70;99.90;;;;;;5095531;28;20020;-87
2023/01/19 10:42:17;;;;;;;55.38;25.92;;;0.70;99.90;;;;;;5095441;28;20016;-88
2023/01/19 10:44:46;;;;;;;57.50;28.90;;;0.60;99.90;;;;;;5077175;28;20355;-85
2023/01/19 10:47:34;;;;;;;56.22;29.15;;;0.60;99.90;;;;;;5095213;28;20050;-86
2023/01/19 10:50:05;;;;;;;58.58;28.13;;;0.60;99.90;;;;;;5094985;28;20461;-87
2023/01/19 10:52:38;;;;;;;55.67;29.65;;;0.60;99.90;;;;;;5094707;28;20020;-86
2023/01/19 10:55:22;;;;;;;56.75;26.17;;;0.70;99.90;;;;;;5075820;28;20488;-86
2023/01/19 10:57:50;;;;;;;48.20;25.33;;;0.60;99.90;;;;;;5076675;28;20028;-86
2023/01/19 11:00:33;;;;;;;56.08;28.05;;;0.60;99.90;;;;;;5076967;28;20103;-88
2023/01/19 11:02:59;;;;;;;47.85;22.67;;;0.60;99.90;;;;;;5095021;28;20111;-85
2023/01/19 11:05:28;;;;;;;47.90;23.77;;;0.50;99.90;;;;;;5095596;28;20059;-86
2023/01/19 11:07:55;;;;;;;55.10;29.33;;;0.50;99.90;;;;;;5077211;28;20012;-85
2023/01/19 11:10:26;;;;;;;54.20;28.35;;;0.50;99.90;;;;;;5094903;28;20025;-88
2023/01/19 11:13:00;;;;;;;57.10;29.15;;;0.50;99.90;;;;;;5095304;28;20483;-86
2023/01/19 11:15:59;;;;;;;51.58;27.75;;;0.40;99.90;;;;;;5076323;28;20036;-85
2023/01/19 11:18:29;;;;;;;56.55;28.92;;;0.40;99.90;;;;;;5094134;28;20024;-87
2023/01/19 11:21:00;;;;;;;49.90;26.08;;;0.40;99.90;;;;;;5093845;28;20025;-87
2023/01/19 11:23:49;;;;;;;48.35;24.60;;;0.30;99.90;;;;;;5076411;28;20020;-85
2023/01/19 11:26:27;;;;;;;53.90;27.42;;;0.30;99.90;;;;;;5094430;28;20024;-87
2023/01/19 11:28:55;;;;;;;54.80;27.48;;;0.20;99.90;;;;;;5094277;28;20027;-86
2023/01/19 11:31:26;;;;;;;48.50;23.90;;;0.20;99.90;;;;;;5094200;28;20119;-87
2023/01/19 11:33:55;;;;;;;47.20;25.08;;;0.20;99.90;;;;;;5075871;28;20032;-88
2023/01/19 11:36:29;;;;;;;59.85;30.95;;;0.30;99.90;;;;;;5073932;28;20089;-88
2023/01/19 11:39:01;;;;;;;50.13;26.42;;;0.30;99.90;;;;;;5093216;28;20028;-87
2023/01/19 11:41:34;;;;;;;61.78;31.08;;;0.30;99.90;;;;;;5075590;28;20456;-85
2023/01/19 11:44:23;;;;;;;61.28;32.25;;;0.30;99.90;;;;;;5075915;28;20050;-86
2023/01/19 11:46:57;;;;;;;71.85;36.47;;;0.30;99.90;;;;;;5075118;28;20093;-86
2023/01/19 11:49:42;;;;;;;58.00;28.60;;;0.40;99.90;;;;;;5074821;28;20427;-85
2023/01/19 11:52:16;;;;;;;51.10;24.02;;;0.40;99.90;;;;;;5090962;28;20032;-85
2023/01/19 11:54:55;;;;;;;47.67;26.65;;;0.40;99.90;;;;;;5056587;28;20048;-85
2023/01/19 11:57:28;;;;;;;54.83;27.10;;;0.40;99.90;;;;;;5093163;28;20028;-86
2023/01/19 11:59:57;;;;;;;52.92;27.90;;;0.50;99.90;;;;;;5093210;28;20480;-85
2023/01/19 12:02:29;;;;;;;51.17;26.60;;;0.50;99.90;;;;;;5093129;28;20020;-88
2023/01/19 12:05:03;;;;;;;45.28;24.40;;;0.50;99.90;;;;;;5092266;28;20874;-89
2023/01/19 12:07:36;;;;;;;53.92;27.77;;;0.50;99.90;;;;;;5074014;28;20024;-85
2023/01/19 12:10:18;;;;;;;49.15;24.27;;;0.50;99.90;;;;;;5070882;28;20379;-87
2023/01/19 12:12:48;;;;;;;38.05;21.40;;;0.40;99.90;;;;;;5087511;28;20069;-85
2023/01/19 12:15:25;;;;;;;37.20;19.73;;;0.30;99.90;;;;;;5073376;28;20152;-89
2023/01/19 12:17:57;;;;;;;40.58;22.80;;;0.30;99.90;;;;;;5073270;28;20049;-87
2023/01/19 12:20:34;;;;;;;34.40;20.98;;;0.30;99.90;;;;;;5071645;28;20016;-86
2023/01/19 12:23:49;;;;;;;42.80;22.05;;;0.30;99.90;;;;;;5069124;28;20033;-85
2023/01/19 12:26:20;;;;;;;53.05;26.90;;;0.30;99.90;;;;;;5059534;28;20043;-88
2023/01/19 12:28:48;;;;;;;39.50;21.15;;;0.30;99.90;;;;;;5091850;28;20091;-85
2023/01/19 12:31:16;;;;;;;37.63;22.98;;;0.30;99.90;;;;;;5074434;28;20027;-88
2023/01/19 12:33:42;;;;;;;45.22;23.38;;;0.30;99.90;;;;;;5073614;28;20448;-87
2023/01/19 12:36:29;;;;;;;37.58;19.85;;;0.40;99.90;;;;;;5067961;28;20071;-87
2023/01/19 12:39:17;;;;;;;43.25;23.08;;;0.40;99.90;;;;;;5090949;28;20089;-88
2023/01/19 12:41:46;;;;;;;62.65;29.20;;;0.40;99.90;;;;;;5088233;28;20102;-88
2023/01/19 12:44:12;;;;;;;55.08;26.88;;;0.40;99.90;;;;;;5086113;28;20526;-88
2023/01/19 12:47:05;;;;;;;80.97;35.22;;;0.50;99.90;;;;;;5072098;28;20056;-89
2023/01/19 12:49:43;;;;;;;44.10;23.17;;;0.50;99.90;;;;;;5070220;28;20025;-85
2023/01/19 12:52:29;;;;;;;32.47;18.55;;;0.40;99.90;;;;;;5072753;28;20024;-88
2023/01/19 12:54:59;;;;;;;311.70;104.63;;;0.40;99.90;;;;;;5061655;28;20135;-88
2023/01/19 12:57:28;;;;;;;66.15;28.50;;;0.40;99.90;;;;;;5084874;28;20451;-88
2023/01/19 13:00:04;;;;;;;96.15;39.65;;;0.40;99.90;;;;;;5071036;28;20056;-86